< Typhoon 197120 1971 Season Typhoon 197122 >
Typhoon 197121 (ROSE)
General InformationTrack Information on Google Maps || Disaster Info.ResourceGoogle EarthGE AnimationAtom FeedGeoJSON
Detalied Best Track (Time Zone = UTC)
Year Month Day Hour Lat. Long. Pressure (hPa) Wind (kt) Class Image Chart
1971 8 6 06 8.4 161.2 1008 0 2 -- Chart
1971 8 6 12 8.5 160.2 1008 0 2 -- Chart
1971 8 6 18 8.5 159.2 1008 0 2 -- Chart
1971 8 7 00 8.6 158.0 1008 0 2 -- Chart
1971 8 7 06 8.8 156.7 1008 0 2 -- Chart
1971 8 7 12 9.1 155.2 1008 0 2 -- Chart
1971 8 7 18 9.5 153.7 1008 0 2 -- Chart
1971 8 8 00 10.0 152.0 1008 0 2 -- Chart
1971 8 8 06 10.5 150.3 1006 0 2 -- Chart
1971 8 8 12 11.0 148.6 1006 0 2 -- Chart
1971 8 8 18 11.5 146.7 1006 0 2 -- Chart
1971 8 9 00 12.0 145.0 1006 0 2 -- Chart
1971 8 9 06 12.7 144.3 1004 0 2 -- Chart
1971 8 9 12 13.3 143.6 1004 0 2 -- Chart
1971 8 9 18 14.0 143.0 1002 0 2 -- Chart
1971 8 10 00 14.5 142.2 1000 0 2 -- Chart
1971 8 10 06 15.2 141.2 998 0 9 -- Chart
1971 8 10 12 15.5 140.5 998 0 9 -- Chart
1971 8 10 18 15.8 139.7 996 0 9 -- Chart
1971 8 11 00 16.5 138.4 998 0 9 -- Chart
1971 8 11 06 17.0 136.8 998 0 9 -- Chart
1971 8 11 12 16.8 135.5 1000 0 9 -- Chart
1971 8 11 18 16.8 133.5 1002 0 9 -- Chart
1971 8 12 00 17.0 132.4 992 0 9 -- Chart
1971 8 12 06 17.5 131.0 985 0 9 -- Chart
1971 8 12 12 17.7 129.5 985 0 9 -- Chart
1971 8 12 18 17.7 127.8 980 0 9 -- Chart
1971 8 13 00 17.7 126.5 980 0 9 -- Chart
1971 8 13 06 17.5 125.0 975 0 9 -- Chart
1971 8 13 12 17.6 123.6 975 0 9 -- Chart
1971 8 13 18 17.7 122.3 975 0 9 -- Chart
1971 8 14 00 17.5 120.7 985 0 9 -- Chart
1971 8 14 06 17.5 119.7 985 0 9 -- Chart
1971 8 14 12 17.6 118.6 985 0 9 -- Chart
1971 8 14 18 18.0 117.5 980 0 9 -- Chart
1971 8 15 00 18.5 116.5 980 0 9 -- Chart
1971 8 15 06 18.7 115.5 970 0 9 -- Chart
1971 8 15 12 19.2 114.8 960 0 9 -- Chart
1971 8 15 18 19.5 114.6 960 0 9 -- Chart
1971 8 16 00 20.1 114.3 960 0 9 -- Chart
1971 8 16 06 20.8 114.0 960 0 9 -- Chart
1971 8 16 12 21.6 113.7 960 0 9 -- Chart
1971 8 16 18 22.4 113.5 970 0 9 -- Chart
1971 8 17 00 23.2 113.0 985 0 9 -- Chart
1971 8 17 06 24.0 113.0 996 0 2 -- Chart
1971 8 17 12 25.5 111.0 1000 0 2 -- Chart
1971 8 17 18 26.5 108.6 1006 0 2 -- Chart
Japan Meteorological Agency Best Track Data | Correction Date : 2013-03-19
< Typhoon 197120 1971 Season Typhoon 197122 >

Help